createdAt,value
2022-08-30T00:01:03.038Z,4.28
2022-08-30T00:03:36.670Z,5.05
2022-08-30T00:06:06.625Z,4.70
2022-08-30T00:08:34.611Z,3.88
2022-08-30T00:11:02.837Z,4.95
2022-08-30T00:13:29.953Z,5.78
2022-08-30T00:15:57.609Z,3.65
2022-08-30T00:18:25.015Z,4.90
2022-08-30T00:20:52.391Z,3.88
2022-08-30T00:23:20.249Z,3.90
2022-08-30T00:25:47.007Z,6.65
2022-08-30T00:28:14.854Z,3.72
2022-08-30T00:30:42.594Z,4.32
2022-08-30T00:33:10.414Z,4.68
2022-08-30T00:35:39.012Z,5.07
2022-08-30T00:38:06.905Z,3.80
2022-08-30T00:40:34.717Z,3.65
2022-08-30T00:43:14.013Z,3.90
2022-08-30T00:45:41.045Z,5.75
2022-08-30T00:48:08.193Z,6.43
2022-08-30T00:50:38.779Z,3.75
2022-08-30T00:53:09.029Z,4.20
2022-08-30T00:55:38.874Z,3.25
2022-08-30T00:58:08.429Z,7.85
2022-08-30T01:00:35.663Z,3.90
2022-08-30T01:03:03.109Z,4.47
2022-08-30T01:05:30.552Z,5.88
2022-08-30T01:07:57.289Z,3.88
2022-08-30T01:10:24.190Z,3.60
2022-08-30T01:12:50.993Z,2.97
2022-08-30T01:15:18.190Z,4.32
2022-08-30T01:17:48.615Z,3.50
2022-08-30T01:20:24.337Z,3.42
2022-08-30T01:22:51.043Z,2.88
2022-08-30T01:25:22.018Z,4.35
2022-08-30T01:27:56.779Z,2.45
2022-08-30T01:30:24.098Z,2.10
2022-08-30T01:32:56.643Z,4.25
2022-08-30T01:35:23.521Z,2.97
2022-08-30T01:37:50.883Z,3.63
2022-08-30T01:40:19.704Z,2.72
2022-08-30T01:42:46.532Z,3.25
2022-08-30T01:45:13.535Z,4.50
2022-08-30T01:47:40.366Z,4.65
2022-08-30T01:50:08.359Z,2.22
2022-08-30T01:52:35.223Z,2.65
2022-08-30T01:55:03.201Z,2.80
2022-08-30T01:57:29.882Z,3.13
2022-08-30T01:59:56.737Z,2.95
2022-08-30T02:02:26.635Z,1.75
2022-08-30T02:04:54.485Z,2.20
2022-08-30T02:12:18.225Z,2.38
2022-08-30T02:14:45.584Z,3.10
2022-08-30T02:17:14.430Z,3.30
2022-08-30T02:19:42.838Z,3.13
2022-08-30T02:22:09.896Z,2.58
2022-08-30T02:24:55.563Z,2.83
2022-08-30T02:27:22.670Z,2.55
2022-08-30T02:29:49.632Z,2.35
2022-08-30T02:32:16.693Z,2.15
2022-08-30T02:34:44.588Z,2.63
2022-08-30T02:37:11.426Z,4.57
2022-08-30T02:39:38.255Z,1.90
2022-08-30T02:42:05.499Z,4.32
2022-08-30T02:44:32.346Z,3.20
2022-08-30T02:46:59.157Z,2.60
2022-08-30T02:49:34.100Z,2.50
2022-08-30T02:52:03.558Z,3.60
2022-08-30T02:54:33.059Z,3.72
2022-08-30T02:57:04.816Z,3.22
2022-08-30T02:59:32.266Z,2.25
2022-08-30T03:01:59.725Z,2.20
2022-08-30T03:04:26.979Z,2.72
2022-08-30T03:06:54.864Z,3.92
2022-08-30T03:09:22.201Z,2.63
2022-08-30T03:11:48.940Z,3.83
2022-08-30T03:14:15.757Z,2.50
2022-08-30T03:16:42.573Z,4.22
2022-08-30T03:19:09.745Z,5.32
2022-08-30T03:21:37.379Z,4.25
2022-08-30T03:24:04.226Z,2.97
2022-08-30T03:26:30.941Z,5.70
2022-08-30T03:28:57.924Z,3.20
2022-08-30T03:31:24.742Z,3.17
2022-08-30T03:33:51.544Z,4.50
2022-08-30T03:36:18.318Z,3.53
2022-08-30T03:38:45.135Z,3.10
2022-08-30T03:41:11.915Z,3.35
2022-08-30T03:43:39.953Z,2.53
2022-08-30T03:46:08.074Z,2.63
2022-08-30T03:48:35.010Z,4.65
2022-08-30T03:51:01.767Z,3.17
2022-08-30T03:53:28.547Z,2.35
2022-08-30T03:55:55.300Z,2.92
2022-08-30T03:58:24.500Z,2.38
2022-08-30T04:00:51.480Z,5.32
2022-08-30T04:03:18.761Z,3.40
2022-08-30T04:05:45.589Z,2.80
2022-08-30T04:08:12.403Z,3.83
2022-08-30T04:10:39.194Z,6.60
2022-08-30T04:13:05.934Z,4.32
2022-08-30T04:15:32.619Z,3.05
2022-08-30T04:17:59.463Z,2.80
2022-08-30T04:20:27.448Z,4.30
2022-08-30T04:22:54.363Z,2.55
2022-08-30T04:25:21.208Z,2.88
2022-08-30T04:27:48.103Z,2.92
2022-08-30T04:30:16.682Z,4.30
2022-08-30T04:32:44.199Z,3.92
2022-08-30T04:35:13.073Z,3.65
2022-08-30T04:37:40.010Z,3.67
2022-08-30T04:40:07.884Z,3.13
2022-08-30T04:42:35.606Z,3.30
2022-08-30T04:45:05.745Z,3.33
2022-08-30T04:47:32.623Z,4.05
2022-08-30T04:49:59.751Z,3.83
2022-08-30T04:52:26.659Z,3.97
2022-08-30T04:54:58.212Z,4.03
2022-08-30T04:57:27.115Z,4.40
2022-08-30T04:59:54.295Z,4.53
2022-08-30T05:02:21.784Z,4.03
2022-08-30T05:05:07.572Z,5.13
2022-08-30T05:07:34.952Z,6.90
2022-08-30T05:10:02.051Z,4.95
2022-08-30T05:12:28.871Z,4.60
2022-08-30T05:14:58.749Z,6.35
2022-08-30T05:17:25.791Z,7.00
2022-08-30T05:19:52.602Z,8.35
2022-08-30T05:22:19.529Z,10.02
2022-08-30T05:24:46.748Z,9.60
2022-08-30T05:27:13.976Z,10.63
2022-08-30T05:29:40.766Z,11.48
2022-08-30T05:32:08.746Z,12.88
2022-08-30T05:34:35.491Z,12.00
2022-08-30T05:37:02.791Z,15.27
2022-08-30T05:39:29.989Z,15.27
2022-08-30T05:42:16.969Z,13.63
2022-08-30T05:44:44.273Z,16.95
2022-08-30T05:47:11.204Z,13.77
2022-08-30T05:49:37.908Z,17.00
2022-08-30T05:52:05.329Z,17.63
2022-08-30T05:54:32.254Z,13.93
2022-08-30T05:56:59.435Z,14.43
2022-08-30T05:59:26.180Z,13.38
2022-08-30T06:01:57.124Z,12.68
2022-08-30T06:04:24.093Z,14.68
2022-08-30T06:06:50.801Z,12.50
2022-08-30T06:09:18.031Z,12.88
2022-08-30T06:11:46.077Z,14.85
2022-08-30T06:14:14.234Z,10.88
2022-08-30T06:16:41.417Z,11.25
2022-08-30T06:19:11.177Z,12.82
2022-08-30T06:21:39.942Z,12.40
2022-08-30T06:24:08.718Z,17.73
2022-08-30T06:26:42.583Z,14.18
2022-08-30T06:31:38.234Z,13.35
2022-08-30T06:34:05.419Z,13.00
2022-08-30T06:36:32.761Z,12.32
2022-08-30T06:39:00.335Z,13.82
2022-08-30T06:41:29.867Z,14.65
2022-08-30T06:43:58.062Z,15.05
2022-08-30T06:46:28.159Z,12.98
2022-08-30T06:48:56.414Z,12.77
2022-08-30T06:51:26.902Z,12.25
2022-08-30T06:53:54.105Z,11.80
2022-08-30T06:56:22.196Z,15.35
2022-08-30T06:58:50.696Z,10.43
2022-08-30T07:01:24.027Z,11.73
2022-08-30T07:03:52.268Z,11.23
2022-08-30T07:06:20.333Z,10.50
2022-08-30T07:08:48.104Z,11.52
2022-08-30T07:11:14.954Z,13.57
2022-08-30T07:13:41.948Z,10.77
2022-08-30T07:16:13.625Z,10.88
2022-08-30T07:18:56.075Z,11.30
2022-08-30T07:21:26.696Z,10.25
2022-08-30T07:23:55.847Z,10.43
2022-08-30T07:26:38.929Z,10.73
2022-08-30T07:29:06.611Z,11.75
2022-08-30T07:31:34.705Z,10.63
2022-08-30T07:34:02.321Z,12.65
2022-08-30T07:36:29.566Z,10.77
2022-08-30T07:38:57.121Z,11.25
2022-08-30T07:41:28.243Z,8.98
2022-08-30T07:43:55.952Z,9.57
2022-08-30T07:46:23.634Z,10.15
2022-08-30T07:48:54.337Z,9.75
2022-08-30T07:51:25.914Z,10.90
2022-08-30T07:53:54.221Z,9.70
2022-08-30T07:56:22.218Z,10.30
2022-08-30T07:58:49.322Z,9.55
2022-08-30T08:01:18.605Z,8.70
2022-08-30T08:03:46.685Z,9.40
2022-08-30T08:06:17.334Z,9.75
2022-08-30T08:08:48.022Z,10.40
2022-08-30T08:11:20.859Z,9.68
2022-08-30T08:13:53.472Z,10.23
2022-08-30T08:16:27.422Z,10.13
2022-08-30T08:18:55.101Z,9.07
2022-08-30T08:21:24.118Z,9.32
2022-08-30T08:23:51.795Z,7.60
2022-08-30T08:26:20.186Z,7.80
2022-08-30T08:28:47.744Z,8.48
2022-08-30T08:31:18.846Z,8.43
2022-08-30T08:33:46.210Z,8.65
2022-08-30T08:36:13.203Z,8.05
2022-08-30T08:38:42.241Z,8.38
2022-08-30T08:41:26.489Z,7.53
2022-08-30T08:43:53.509Z,6.07
2022-08-30T08:46:48.319Z,7.35
2022-08-30T08:49:15.801Z,7.35
2022-08-30T08:52:01.353Z,6.70
2022-08-30T08:54:46.582Z,8.48
2022-08-30T08:57:16.621Z,10.98
2022-08-30T08:59:45.543Z,11.75
2022-08-30T09:02:28.756Z,12.77
2022-08-30T09:05:00.660Z,11.45
2022-08-30T09:07:37.502Z,8.43
2022-08-30T09:10:05.643Z,12.13
2022-08-30T09:12:32.712Z,7.95
2022-08-30T09:15:24.175Z,10.38
2022-08-30T09:18:00.233Z,12.88
2022-08-30T09:20:43.348Z,9.02
2022-08-30T09:23:13.772Z,10.90
2022-08-30T09:25:50.519Z,10.73
2022-08-30T09:28:23.035Z,11.10
2022-08-30T09:31:03.771Z,8.55
2022-08-30T09:33:31.141Z,10.50
2022-08-30T09:36:12.857Z,9.60
2022-08-30T09:38:39.832Z,7.82
2022-08-30T09:41:26.615Z,8.60
2022-08-30T09:44:06.822Z,7.40
2022-08-30T09:46:33.944Z,7.82
2022-08-30T09:49:00.807Z,7.80
2022-08-30T09:51:52.734Z,5.43
2022-08-30T09:54:26.600Z,7.45
2022-08-30T09:57:12.867Z,5.60
2022-08-30T09:59:53.781Z,9.20
2022-08-30T10:02:45.306Z,10.70
2022-08-30T10:05:20.047Z,7.97
2022-08-30T10:08:06.363Z,8.43
2022-08-30T10:10:52.511Z,7.13
2022-08-30T10:13:30.517Z,8.23
2022-08-30T10:16:14.041Z,7.80
2022-08-30T10:18:50.037Z,5.68
2022-08-30T10:21:25.481Z,6.57
2022-08-30T10:24:04.446Z,10.43
2022-08-30T10:26:45.193Z,7.57
2022-08-30T10:29:24.555Z,6.55
2022-08-30T10:32:22.766Z,9.07
2022-08-30T10:35:19.216Z,10.25
2022-08-30T10:38:10.152Z,9.18
2022-08-30T10:41:01.085Z,7.63
2022-08-30T10:43:33.565Z,7.95
2022-08-30T10:46:16.296Z,9.10
2022-08-30T10:48:48.566Z,8.43
2022-08-30T10:51:24.517Z,6.47
2022-08-30T10:54:01.749Z,7.90
2022-08-30T10:56:29.786Z,6.68
2022-08-30T10:58:59.086Z,6.72
2022-08-30T11:01:34.969Z,6.88
2022-08-30T11:04:35.360Z,6.38
2022-08-30T11:07:20.582Z,4.13
2022-08-30T11:10:02.824Z,4.57
2022-08-30T11:15:17.097Z,5.07
2022-08-30T11:18:06.974Z,3.83
2022-08-30T11:20:45.502Z,4.65
2022-08-30T11:23:32.613Z,4.57
2022-08-30T11:26:15.959Z,5.00
2022-08-30T11:28:47.342Z,3.95
2022-08-30T11:31:23.734Z,4.32
2022-08-30T11:33:52.142Z,8.15
2022-08-30T11:36:38.813Z,2.13
2022-08-30T11:39:48.939Z,2.60
2022-08-30T11:42:30.082Z,4.63
2022-08-30T11:45:28.095Z,2.63
2022-08-30T11:47:59.568Z,2.10
2022-08-30T11:50:35.432Z,1.60
2022-08-30T11:53:28.185Z,2.00
2022-08-30T11:56:08.657Z,2.58
2022-08-30T11:59:01.427Z,3.75
2022-08-30T12:01:50.971Z,1.70
2022-08-30T12:04:18.017Z,2.70
2022-08-30T12:06:49.819Z,2.78
2022-08-30T12:09:23.249Z,2.90
2022-08-30T12:12:31.117Z,2.05
2022-08-30T12:14:58.091Z,1.83
2022-08-30T12:18:03.765Z,2.53
2022-08-30T12:20:44.013Z,1.73
2022-08-30T12:23:44.531Z,1.50
2022-08-30T12:26:26.702Z,3.38
2022-08-30T12:29:10.785Z,2.13
2022-08-30T12:31:48.712Z,2.78
2022-08-30T12:34:29.583Z,4.75
2022-08-30T12:37:04.792Z,1.92
2022-08-30T12:39:35.395Z,1.60
2022-08-30T12:42:24.393Z,3.47
2022-08-30T12:44:57.915Z,1.88
2022-08-30T12:47:50.018Z,1.60
2022-08-30T12:50:21.496Z,3.25
2022-08-30T12:52:57.778Z,2.65
2022-08-30T12:55:32.750Z,2.25
2022-08-30T12:58:14.668Z,3.80
2022-08-30T13:00:44.094Z,3.45
2022-08-30T13:03:36.917Z,2.55
2022-08-30T13:06:07.468Z,2.20
2022-08-30T13:08:42.105Z,1.95
2022-08-30T13:11:12.015Z,1.50
2022-08-30T13:13:52.289Z,1.52
2022-08-30T13:16:22.917Z,2.78
2022-08-30T13:19:15.416Z,1.67
2022-08-30T13:21:56.923Z,1.83
2022-08-30T13:24:25.749Z,5.25
2022-08-30T13:26:58.532Z,2.90
2022-08-30T13:29:28.079Z,2.60
2022-08-30T13:31:55.286Z,2.85
2022-08-30T13:34:22.855Z,1.55
2022-08-30T13:36:53.362Z,1.35
2022-08-30T13:39:21.689Z,1.98
2022-08-30T13:41:49.562Z,2.83
2022-08-30T13:44:16.504Z,2.10
2022-08-30T13:46:53.035Z,2.72
2022-08-30T13:52:21.251Z,2.28
2022-08-30T13:54:54.362Z,2.40
2022-08-30T14:00:18.945Z,2.20
2022-08-30T14:02:54.281Z,3.45
2022-08-30T14:05:57.061Z,4.40
2022-08-30T14:08:48.072Z,1.60
2022-08-30T14:11:20.810Z,6.13
2022-08-30T14:16:37.993Z,1.55
2022-08-30T14:19:06.378Z,2.05
2022-08-30T14:21:35.565Z,2.10
2022-08-30T14:24:04.854Z,1.70
2022-08-30T14:26:49.488Z,1.98
2022-08-30T14:29:22.361Z,3.08
2022-08-30T14:31:49.446Z,3.25
2022-08-30T14:34:16.703Z,6.45
2022-08-30T14:36:45.793Z,4.65
2022-08-30T14:39:18.123Z,2.45
2022-08-30T14:41:48.273Z,2.40
2022-08-30T14:44:17.056Z,2.08
2022-08-30T14:46:44.002Z,2.05
2022-08-30T14:49:12.537Z,1.92
2022-08-30T14:51:39.934Z,2.38
2022-08-30T14:54:08.619Z,3.22
2022-08-30T14:56:37.418Z,2.05
2022-08-30T14:59:04.830Z,1.88
2022-08-30T15:01:32.238Z,2.20
2022-08-30T15:04:07.272Z,3.35
2022-08-30T15:06:36.106Z,4.38
2022-08-30T15:09:03.718Z,2.83
2022-08-30T15:11:30.821Z,4.38
2022-08-30T15:14:00.463Z,2.45
2022-08-30T15:16:32.284Z,2.53
2022-08-30T15:19:00.020Z,4.65
2022-08-30T15:21:33.148Z,2.25
2022-08-30T15:24:01.472Z,2.83
2022-08-30T15:26:28.739Z,2.17
2022-08-30T15:28:56.410Z,2.50
2022-08-30T15:31:28.121Z,4.15
2022-08-30T15:33:55.048Z,2.20
2022-08-30T15:36:23.741Z,2.17
2022-08-30T15:38:53.821Z,3.75
2022-08-30T15:41:21.169Z,2.83
2022-08-30T15:43:49.302Z,3.60
2022-08-30T15:46:31.896Z,4.75
2022-08-30T15:49:05.380Z,3.40
2022-08-30T15:51:41.033Z,2.78
2022-08-30T15:54:13.202Z,2.38
2022-08-30T15:56:41.856Z,3.70
2022-08-30T15:59:09.664Z,2.88
2022-08-30T16:01:37.521Z,2.78
2022-08-30T16:04:04.778Z,2.22
2022-08-30T16:06:37.159Z,2.28
2022-08-30T16:09:08.153Z,5.30
2022-08-30T16:11:35.773Z,2.13
2022-08-30T16:14:04.275Z,2.58
2022-08-30T16:16:31.293Z,2.60
2022-08-30T16:18:58.090Z,2.58
2022-08-30T16:21:28.605Z,3.80
2022-08-30T16:23:58.203Z,7.18
2022-08-30T16:26:25.940Z,4.35
2022-08-30T16:28:53.395Z,2.63
2022-08-30T16:31:21.343Z,2.22
2022-08-30T16:33:52.520Z,2.20
2022-08-30T16:36:21.187Z,2.17
2022-08-30T16:38:48.751Z,2.15
2022-08-30T16:41:21.453Z,2.05
2022-08-30T16:43:53.558Z,2.10
2022-08-30T16:46:23.403Z,2.25
2022-08-30T16:48:57.033Z,2.58
2022-08-30T16:51:27.640Z,2.08
2022-08-30T16:53:59.931Z,3.05
2022-08-30T16:56:33.452Z,1.80
2022-08-30T16:59:02.480Z,1.83
2022-08-30T17:01:35.052Z,2.75
2022-08-30T17:04:02.931Z,2.08
2022-08-30T17:06:29.958Z,1.48
2022-08-30T17:08:56.921Z,1.33
2022-08-30T17:11:24.460Z,2.30
2022-08-30T17:13:51.649Z,2.10
2022-08-30T17:16:27.467Z,1.60
2022-08-30T17:18:56.055Z,2.30
2022-08-30T17:21:27.133Z,1.88
2022-08-30T17:23:53.902Z,1.70
2022-08-30T17:26:25.738Z,1.65
2022-08-30T17:28:53.037Z,1.80
2022-08-30T17:31:19.884Z,1.80
2022-08-30T17:33:49.185Z,2.67
2022-08-30T17:36:16.689Z,1.60
2022-08-30T17:38:44.766Z,4.47
2022-08-30T17:41:12.262Z,3.15
2022-08-30T17:43:39.551Z,1.42
2022-08-30T17:46:18.278Z,2.05
2022-08-30T17:48:46.020Z,1.50
2022-08-30T17:51:13.092Z,1.77
2022-08-30T17:53:40.237Z,1.25
2022-08-30T17:56:11.452Z,2.30
2022-08-30T17:58:38.855Z,1.50
2022-08-30T18:01:11.957Z,1.35
2022-08-30T18:03:39.576Z,2.45
2022-08-30T18:06:08.682Z,1.33
2022-08-30T18:08:37.394Z,1.95
2022-08-30T18:11:05.955Z,1.88
2022-08-30T18:13:33.127Z,1.35
2022-08-30T18:16:02.675Z,1.48
2022-08-30T18:18:31.040Z,1.63
2022-08-30T18:21:00.656Z,1.58
2022-08-30T18:23:27.715Z,3.00
2022-08-30T18:26:01.379Z,2.40
2022-08-30T18:28:29.443Z,2.80
2022-08-30T18:30:59.349Z,1.50
2022-08-30T18:33:27.147Z,4.45
2022-08-30T18:35:55.980Z,4.28
2022-08-30T18:38:23.983Z,2.33
2022-08-30T18:40:52.109Z,2.63
2022-08-30T18:46:09.437Z,2.88
2022-08-30T18:48:36.565Z,2.05
2022-08-30T18:51:04.274Z,2.97
2022-08-30T18:53:32.409Z,3.25
2022-08-30T18:55:59.819Z,1.60
2022-08-30T18:58:26.748Z,3.35
2022-08-30T19:00:56.729Z,1.58
2022-08-30T19:03:23.812Z,3.53
2022-08-30T19:05:50.738Z,4.15
2022-08-30T19:08:17.655Z,1.60
2022-08-30T19:10:44.579Z,1.50
2022-08-30T19:13:12.364Z,2.20
2022-08-30T19:15:39.411Z,2.13
2022-08-30T19:18:12.873Z,2.08
2022-08-30T19:20:45.780Z,1.98
2022-08-30T19:23:14.666Z,1.83
2022-08-30T19:25:42.400Z,2.17
2022-08-30T19:28:10.479Z,3.97
2022-08-30T19:30:37.819Z,3.30
2022-08-30T19:33:05.838Z,3.35
2022-08-30T19:35:33.406Z,1.40
2022-08-30T19:38:00.603Z,1.85
2022-08-30T19:40:28.440Z,3.15
2022-08-30T19:42:55.236Z,3.03
2022-08-30T19:45:23.069Z,2.05
2022-08-30T19:47:51.170Z,3.35
2022-08-30T19:50:19.285Z,1.30
2022-08-30T19:52:54.233Z,1.65
2022-08-30T19:55:28.680Z,1.60
2022-08-30T19:57:57.653Z,1.50
2022-08-30T20:00:25.173Z,1.58
2022-08-30T20:02:52.088Z,4.00
2022-08-30T20:05:19.663Z,2.03
2022-08-30T20:07:50.946Z,1.70
2022-08-30T20:10:20.090Z,1.58
2022-08-30T20:12:50.217Z,1.90
2022-08-30T20:15:18.155Z,1.67
2022-08-30T20:18:13.475Z,1.98
2022-08-30T20:20:37.279Z,1.63
2022-08-30T20:23:05.569Z,4.22
2022-08-30T20:24:29.095Z,1.92
2022-08-30T20:25:33.442Z,1.63
2022-08-30T20:28:00.370Z,1.75
2022-08-30T20:30:27.443Z,1.88
2022-08-30T20:32:54.307Z,3.47
2022-08-30T20:35:21.412Z,1.98
2022-08-30T20:37:50.147Z,5.35
2022-08-30T20:40:18.710Z,1.52
2022-08-30T20:42:46.347Z,2.15
2022-08-30T20:45:15.860Z,2.25
2022-08-30T20:47:43.527Z,2.70
2022-08-30T20:50:13.452Z,1.70
2022-08-30T20:52:41.275Z,1.73
2022-08-30T20:55:09.464Z,1.98
2022-08-30T20:57:36.413Z,1.98
2022-08-30T21:00:06.775Z,3.10
2022-08-30T21:02:34.740Z,2.10
2022-08-30T21:05:03.975Z,1.80
2022-08-30T21:07:33.820Z,2.03
2022-08-30T21:10:00.620Z,2.33
2022-08-30T21:12:27.508Z,1.98
2022-08-30T21:14:54.440Z,4.30
2022-08-30T21:17:21.375Z,2.05
2022-08-30T21:19:48.193Z,1.73
2022-08-30T21:22:14.951Z,2.30
2022-08-30T21:24:41.651Z,2.10
2022-08-30T21:27:12.031Z,2.60
2022-08-30T21:29:39.705Z,2.00
2022-08-30T21:32:08.800Z,2.90
2022-08-30T21:34:55.906Z,2.70
2022-08-30T21:37:22.896Z,2.55
2022-08-30T21:39:50.038Z,2.15
2022-08-30T21:42:17.190Z,2.15
2022-08-30T21:44:44.582Z,2.35
2022-08-30T21:47:11.575Z,3.13
2022-08-30T21:49:38.423Z,2.45
2022-08-30T21:52:05.665Z,2.92
2022-08-30T21:54:32.990Z,2.58
2022-08-30T21:57:01.741Z,2.65
2022-08-30T21:59:28.664Z,3.42
2022-08-30T22:01:55.712Z,2.50
2022-08-30T22:04:26.196Z,2.47
2022-08-30T22:06:53.735Z,3.88
2022-08-30T22:09:23.896Z,2.92
2022-08-30T22:11:51.195Z,3.03
2022-08-30T22:14:19.598Z,2.58
2022-08-30T22:16:46.510Z,3.88
2022-08-30T22:19:13.724Z,2.75
2022-08-30T22:21:42.630Z,3.45
2022-08-30T22:24:10.220Z,2.55
2022-08-30T22:26:37.549Z,3.72
2022-08-30T22:29:05.863Z,3.25
2022-08-30T22:31:32.913Z,2.40
2022-08-30T22:33:59.701Z,2.72
2022-08-30T22:36:32.222Z,2.88
2022-08-30T22:39:01.114Z,2.83
2022-08-30T22:41:31.410Z,2.72
2022-08-30T22:43:58.768Z,2.95
2022-08-30T22:46:33.922Z,2.65
2022-08-30T22:49:06.257Z,3.80
2022-08-30T22:51:33.892Z,2.65
2022-08-30T22:54:01.244Z,3.00
2022-08-30T22:56:28.915Z,2.75
2022-08-30T22:58:56.534Z,2.67
2022-08-30T23:01:27.095Z,4.32
2022-08-30T23:03:54.625Z,3.08
2022-08-30T23:06:22.618Z,2.40
2022-08-30T23:08:49.522Z,3.10
2022-08-30T23:11:16.881Z,5.30
2022-08-30T23:13:44.014Z,3.30
2022-08-30T23:16:12.300Z,3.70
2022-08-30T23:18:41.943Z,3.28
2022-08-30T23:21:14.725Z,3.10
2022-08-30T23:24:00.587Z,4.15
2022-08-30T23:26:46.511Z,4.15
2022-08-30T23:29:32.033Z,3.13
2022-08-30T23:32:18.530Z,3.40
2022-08-30T23:35:03.905Z,3.42
2022-08-30T23:37:53.355Z,2.97
2022-08-30T23:40:40.620Z,3.47
2022-08-30T23:43:26.789Z,5.55
2022-08-30T23:46:15.130Z,3.45
2022-08-30T23:49:04.169Z,5.28
2022-08-30T23:51:49.511Z,3.55
2022-08-30T23:54:34.887Z,3.15
2022-08-30T23:57:20.154Z,4.25
